createdAt,value
2018-10-09T00:01:28.112Z,7.83
2018-10-09T00:03:56.723Z,8.73
2018-10-09T00:06:25.922Z,8.37
2018-10-09T00:08:55.595Z,8.23
2018-10-09T00:11:24.359Z,8.53
2018-10-09T00:13:53.060Z,7.73
2018-10-09T00:16:21.785Z,7.70
2018-10-09T00:18:50.526Z,8.37
2018-10-09T00:21:20.267Z,7.77
2018-10-09T00:23:48.864Z,8.57
2018-10-09T00:26:17.314Z,7.80
2018-10-09T00:28:46.256Z,9.00
2018-10-09T00:31:15.787Z,8.70
2018-10-09T00:33:45.531Z,8.97
2018-10-09T00:36:14.502Z,8.47
2018-10-09T00:38:43.298Z,9.77
2018-10-09T00:41:11.804Z,9.43
2018-10-09T00:43:40.284Z,10.27
2018-10-09T00:46:08.699Z,9.63
2018-10-09T00:48:37.799Z,8.83
2018-10-09T00:51:07.017Z,9.50
2018-10-09T00:53:36.364Z,9.43
2018-10-09T00:56:05.352Z,8.77
2018-10-09T00:58:34.208Z,9.57
2018-10-09T01:01:03.004Z,9.13
2018-10-09T01:03:32.396Z,9.17
2018-10-09T01:06:01.146Z,9.77
2018-10-09T01:08:29.892Z,9.30
2018-10-09T01:10:58.571Z,9.83
2018-10-09T01:13:27.293Z,10.47
2018-10-09T01:15:56.117Z,9.07
2018-10-09T01:18:25.409Z,10.40
2018-10-09T01:20:54.454Z,10.17
2018-10-09T01:23:24.264Z,9.67
2018-10-09T01:25:52.655Z,9.67
2018-10-09T01:28:21.463Z,9.63
2018-10-09T01:30:50.166Z,9.83
2018-10-09T01:33:19.180Z,9.60
2018-10-09T01:35:48.740Z,9.27
2018-10-09T01:38:23.846Z,8.87
2018-10-09T01:40:52.452Z,8.70
2018-10-09T01:43:21.535Z,10.47
2018-10-09T01:45:50.692Z,8.30
2018-10-09T01:48:19.652Z,8.00
2018-10-09T01:50:49.235Z,8.00
2018-10-09T01:53:18.160Z,8.17
2018-10-09T01:55:48.399Z,8.00
2018-10-09T01:58:17.280Z,8.37
2018-10-09T02:00:46.211Z,7.47
2018-10-09T02:03:14.830Z,6.93
2018-10-09T02:05:44.100Z,7.20
2018-10-09T02:08:12.730Z,7.40
2018-10-09T02:10:41.558Z,7.30
2018-10-09T02:13:10.373Z,7.20
2018-10-09T02:15:39.084Z,7.17
2018-10-09T02:18:07.677Z,6.97
2018-10-09T02:20:36.302Z,6.60
2018-10-09T02:23:04.963Z,6.77
2018-10-09T02:25:33.873Z,6.60
2018-10-09T02:28:02.770Z,7.13
2018-10-09T02:30:31.413Z,6.93
2018-10-09T02:32:59.971Z,7.30
2018-10-09T02:35:28.845Z,7.60
2018-10-09T02:37:57.801Z,7.27
2018-10-09T02:40:26.569Z,7.33
2018-10-09T02:42:55.555Z,6.67
2018-10-09T02:45:24.268Z,6.93
2018-10-09T02:47:53.036Z,7.23
2018-10-09T02:50:21.588Z,6.30
2018-10-09T02:52:50.489Z,6.43
2018-10-09T02:55:19.616Z,6.70
2018-10-09T02:57:48.444Z,7.70
2018-10-09T03:00:17.397Z,7.07
2018-10-09T03:02:46.317Z,8.63
2018-10-09T03:05:15.200Z,7.57
2018-10-09T03:07:44.103Z,6.70
2018-10-09T03:10:12.960Z,6.97
2018-10-09T03:12:41.653Z,7.33
2018-10-09T03:15:10.440Z,7.63
2018-10-09T03:17:40.379Z,8.13
2018-10-09T03:20:09.605Z,8.50
2018-10-09T03:22:38.303Z,7.90
2018-10-09T03:25:07.098Z,7.87
2018-10-09T03:27:36.367Z,9.33
2018-10-09T03:30:06.703Z,9.33
2018-10-09T03:32:36.613Z,9.17
2018-10-09T03:35:05.585Z,9.17
2018-10-09T03:37:34.260Z,10.10
2018-10-09T03:40:03.106Z,8.93
2018-10-09T03:42:31.736Z,10.37
2018-10-09T03:45:00.387Z,9.87
2018-10-09T03:47:33.909Z,9.87
2018-10-09T03:50:02.500Z,10.37
2018-10-09T03:52:31.409Z,10.23
2018-10-09T03:55:00.241Z,9.87
2018-10-09T03:57:28.982Z,10.77
2018-10-09T03:59:58.202Z,10.80
2018-10-09T04:02:27.254Z,10.27
2018-10-09T04:04:56.158Z,10.53
2018-10-09T04:07:24.991Z,11.67
2018-10-09T04:09:54.222Z,10.90
2018-10-09T04:12:23.031Z,11.63
2018-10-09T04:14:52.111Z,10.90
2018-10-09T04:17:20.656Z,12.03
2018-10-09T04:19:49.594Z,12.37
2018-10-09T04:22:21.002Z,12.77
2018-10-09T04:24:50.009Z,12.13
2018-10-09T04:27:18.881Z,13.10
2018-10-09T04:29:47.621Z,13.50
2018-10-09T04:32:16.592Z,13.77
2018-10-09T04:34:45.503Z,14.30
2018-10-09T04:37:14.997Z,13.97
2018-10-09T04:39:43.921Z,14.23
2018-10-09T04:42:12.713Z,14.70
2018-10-09T04:44:41.851Z,15.37
2018-10-09T04:47:10.814Z,14.00
2018-10-09T04:49:39.342Z,13.60
2018-10-09T04:52:08.502Z,14.50
2018-10-09T04:54:37.227Z,14.87
2018-10-09T04:57:06.146Z,14.20
2018-10-09T04:59:35.966Z,14.57
2018-10-09T05:02:04.756Z,14.93
2018-10-09T05:04:33.607Z,14.30
2018-10-09T05:07:02.217Z,14.40
2018-10-09T05:09:30.643Z,14.10
2018-10-09T05:11:59.509Z,14.03
2018-10-09T05:14:30.238Z,13.63
2018-10-09T05:16:59.758Z,14.20
2018-10-09T05:19:28.831Z,13.77
2018-10-09T05:21:57.701Z,15.00
2018-10-09T05:24:27.101Z,13.83
2018-10-09T05:26:55.863Z,14.33
2018-10-09T05:29:25.983Z,14.53
2018-10-09T05:31:54.688Z,14.23
2018-10-09T05:34:23.731Z,12.53
2018-10-09T05:36:53.712Z,13.70
2018-10-09T05:39:35.221Z,14.07
2018-10-09T05:42:04.622Z,13.30
2018-10-09T05:44:33.557Z,13.07
2018-10-09T05:47:02.867Z,12.83
2018-10-09T05:49:32.623Z,13.67
2018-10-09T05:52:01.954Z,14.27
2018-10-09T05:54:30.915Z,13.40
2018-10-09T05:56:59.805Z,13.10
2018-10-09T05:59:28.774Z,13.13
2018-10-09T06:01:57.527Z,13.30
2018-10-09T06:04:27.008Z,11.70
2018-10-09T06:06:58.071Z,12.87
2018-10-09T06:09:27.201Z,13.30
2018-10-09T06:11:56.179Z,13.00
2018-10-09T06:14:25.208Z,12.47
2018-10-09T06:16:54.420Z,12.37
2018-10-09T06:19:23.187Z,13.40
2018-10-09T06:22:01.354Z,13.23
2018-10-09T06:24:30.801Z,12.63
2018-10-09T06:26:59.774Z,12.27
2018-10-09T06:29:28.512Z,14.10
2018-10-09T06:31:57.634Z,12.83
2018-10-09T06:34:27.850Z,12.67
2018-10-09T06:36:56.918Z,13.27
2018-10-09T06:39:26.049Z,13.23
2018-10-09T06:41:54.877Z,12.87
2018-10-09T06:44:23.724Z,12.93
2018-10-09T06:46:52.485Z,13.00
2018-10-09T06:49:21.341Z,14.10
2018-10-09T06:51:50.119Z,12.87
2018-10-09T06:54:19.054Z,13.03
2018-10-09T06:56:48.198Z,12.50
2018-10-09T06:59:17.134Z,13.00
2018-10-09T07:01:46.295Z,13.43
2018-10-09T07:04:15.618Z,12.97
2018-10-09T07:06:44.529Z,13.70
2018-10-09T07:09:13.439Z,12.57
2018-10-09T07:11:42.585Z,13.97
2018-10-09T07:14:12.307Z,13.60
2018-10-09T07:16:41.064Z,12.13
2018-10-09T07:19:10.129Z,13.40
2018-10-09T07:21:39.913Z,13.63
2018-10-09T07:24:08.903Z,13.47
2018-10-09T07:26:37.978Z,13.47
2018-10-09T07:29:07.022Z,14.93
2018-10-09T07:31:35.782Z,14.17
2018-10-09T07:34:04.887Z,14.77
2018-10-09T07:36:34.267Z,13.67
2018-10-09T07:39:03.206Z,14.07
2018-10-09T07:41:32.305Z,14.03
2018-10-09T07:44:01.441Z,13.20
2018-10-09T07:46:30.568Z,12.57
2018-10-09T07:48:59.791Z,12.77
2018-10-09T07:51:28.507Z,13.60
2018-10-09T07:53:58.049Z,13.53
2018-10-09T07:56:27.047Z,12.83
2018-10-09T07:58:56.491Z,12.07
2018-10-09T08:01:25.161Z,12.63
2018-10-09T08:03:54.298Z,12.13
2018-10-09T08:06:22.951Z,11.60
2018-10-09T08:08:53.350Z,11.97
2018-10-09T08:11:23.382Z,10.63
2018-10-09T08:13:51.864Z,11.13
2018-10-09T08:16:21.339Z,10.77
2018-10-09T08:18:50.067Z,10.37
2018-10-09T08:21:19.840Z,10.70
2018-10-09T08:23:48.534Z,10.73
2018-10-09T08:26:17.686Z,10.20
2018-10-09T08:28:47.075Z,10.27
2018-10-09T08:31:16.391Z,9.47
2018-10-09T08:33:46.429Z,10.40
2018-10-09T08:36:15.605Z,10.33
2018-10-09T08:38:45.421Z,9.70
2018-10-09T08:41:15.151Z,8.93
2018-10-09T08:43:44.807Z,9.07
2018-10-09T08:46:13.686Z,8.37
2018-10-09T08:48:43.223Z,9.30
2018-10-09T08:51:12.276Z,9.07
2018-10-09T08:53:41.479Z,8.73
2018-10-09T08:56:10.281Z,8.50
2018-10-09T08:58:39.793Z,7.80
2018-10-09T09:01:09.581Z,7.03
2018-10-09T09:03:38.463Z,7.33
2018-10-09T09:06:08.021Z,7.57
2018-10-09T09:08:36.924Z,6.70
2018-10-09T09:11:06.353Z,6.63
2018-10-09T09:13:35.145Z,6.63
2018-10-09T09:16:04.722Z,6.30
2018-10-09T09:18:34.032Z,6.70
2018-10-09T09:21:03.214Z,6.13
2018-10-09T09:23:32.390Z,6.33
2018-10-09T09:26:01.487Z,7.03
2018-10-09T09:28:30.505Z,6.17
2018-10-09T09:31:00.945Z,6.10
2018-10-09T09:33:31.616Z,7.10
2018-10-09T09:36:00.754Z,6.77
2018-10-09T09:38:29.772Z,5.97
2018-10-09T09:40:58.694Z,6.20
2018-10-09T09:43:27.752Z,6.43
2018-10-09T09:45:56.393Z,7.03
2018-10-09T09:48:26.040Z,6.90
2018-10-09T09:50:54.885Z,7.23
2018-10-09T09:53:24.323Z,5.80
2018-10-09T09:55:53.352Z,5.87
2018-10-09T09:58:22.422Z,5.80
2018-10-09T10:00:59.162Z,5.70
2018-10-09T10:03:28.215Z,5.73
2018-10-09T10:05:57.299Z,4.47
2018-10-09T10:08:26.288Z,4.47
2018-10-09T10:10:55.006Z,4.33
2018-10-09T10:13:24.078Z,4.53
2018-10-09T10:15:53.292Z,4.10
2018-10-09T10:18:22.241Z,3.90
2018-10-09T10:20:51.585Z,3.20
2018-10-09T10:23:20.656Z,3.60
2018-10-09T10:25:49.661Z,3.77
2018-10-09T10:28:19.262Z,3.70
2018-10-09T10:30:48.610Z,3.00
2018-10-09T10:33:18.108Z,4.07
2018-10-09T10:35:46.836Z,4.37
2018-10-09T10:38:16.080Z,3.60
2018-10-09T10:40:45.280Z,3.87
2018-10-09T10:43:14.653Z,4.43
2018-10-09T10:45:43.351Z,4.83
2018-10-09T10:48:12.262Z,4.50
2018-10-09T10:50:41.234Z,4.90
2018-10-09T10:53:10.252Z,4.97
2018-10-09T10:55:38.935Z,5.40
2018-10-09T10:58:07.977Z,5.60
2018-10-09T11:00:37.512Z,4.77
2018-10-09T11:03:06.987Z,4.23
2018-10-09T11:05:37.033Z,4.97
2018-10-09T11:08:06.371Z,4.70
2018-10-09T11:10:35.479Z,4.53
2018-10-09T11:13:05.319Z,4.63
2018-10-09T11:15:34.309Z,4.67
2018-10-09T11:18:03.373Z,4.62
2018-10-09T11:20:32.989Z,4.17
2018-10-09T11:23:03.131Z,4.00
2018-10-09T11:25:32.221Z,4.03
2018-10-09T11:28:02.778Z,3.97
2018-10-09T11:30:31.781Z,4.03
2018-10-09T11:33:00.721Z,3.92
2018-10-09T11:35:30.386Z,3.37
2018-10-09T11:37:59.442Z,3.75
2018-10-09T11:40:29.059Z,4.30
2018-10-09T11:42:58.069Z,3.65
2018-10-09T11:45:26.814Z,3.60
2018-10-09T11:47:55.721Z,3.62
2018-10-09T11:50:25.271Z,3.90
2018-10-09T11:52:55.195Z,3.65
2018-10-09T11:55:24.414Z,4.00
2018-10-09T11:57:54.097Z,4.28
2018-10-09T12:00:23.553Z,3.80
2018-10-09T12:02:53.182Z,4.03
2018-10-09T12:05:23.214Z,3.65
2018-10-09T12:07:52.199Z,3.70
2018-10-09T12:10:21.267Z,3.45
2018-10-09T12:12:50.305Z,3.30
2018-10-09T12:15:18.933Z,3.33
2018-10-09T12:17:47.673Z,3.80
2018-10-09T12:20:17.034Z,3.55
2018-10-09T12:22:48.642Z,3.27
2018-10-09T12:25:17.525Z,2.70
2018-10-09T12:27:47.078Z,2.30
2018-10-09T12:30:16.316Z,2.50
2018-10-09T12:32:45.200Z,2.50
2018-10-09T12:35:14.293Z,2.65
2018-10-09T12:37:43.513Z,2.25
2018-10-09T12:40:14.283Z,2.02
2018-10-09T12:42:42.834Z,2.17
2018-10-09T12:45:11.553Z,2.37
2018-10-09T12:47:40.217Z,2.33
2018-10-09T12:50:09.037Z,2.12
2018-10-09T12:52:39.152Z,1.95
2018-10-09T12:55:08.346Z,2.17
2018-10-09T12:57:37.518Z,2.17
2018-10-09T13:00:06.484Z,2.20
2018-10-09T13:02:35.154Z,2.30
2018-10-09T13:05:04.199Z,2.20
2018-10-09T13:07:33.968Z,2.12
2018-10-09T13:10:03.375Z,2.52
2018-10-09T13:12:33.351Z,1.85
2018-10-09T13:15:03.113Z,2.30
2018-10-09T13:17:33.045Z,2.25
2018-10-09T13:20:02.492Z,2.25
2018-10-09T13:22:31.904Z,2.40
2018-10-09T13:25:00.653Z,2.40
2018-10-09T13:27:31.211Z,2.60
2018-10-09T13:30:02.327Z,2.90
2018-10-09T13:32:32.777Z,2.87
2018-10-09T13:35:03.407Z,3.08
2018-10-09T13:37:34.024Z,3.37
2018-10-09T13:40:04.427Z,2.87
2018-10-09T13:42:34.291Z,3.17
2018-10-09T13:45:04.281Z,2.95
2018-10-09T13:47:33.939Z,3.15
2018-10-09T13:50:15.754Z,3.15
2018-10-09T13:52:47.011Z,3.80
2018-10-09T13:55:19.400Z,3.55
2018-10-09T13:57:49.478Z,3.92
2018-10-09T14:00:18.695Z,3.50
2018-10-09T14:02:48.389Z,3.72
2018-10-09T14:05:17.112Z,3.75
2018-10-09T14:07:46.993Z,4.28
2018-10-09T14:10:16.924Z,3.67
2018-10-09T14:12:51.527Z,3.70
2018-10-09T14:15:37.199Z,3.43
2018-10-09T14:18:09.004Z,3.70
2018-10-09T14:20:40.713Z,3.73
2018-10-09T14:23:11.042Z,3.57
2018-10-09T14:25:40.599Z,3.83
2018-10-09T14:28:09.450Z,3.20
2018-10-09T14:30:38.438Z,3.23
2018-10-09T14:33:08.200Z,3.57
2018-10-09T14:35:57.588Z,3.30
2018-10-09T14:38:47.474Z,3.50
2018-10-09T14:41:39.497Z,4.00
2018-10-09T14:44:29.435Z,3.60
2018-10-09T14:47:22.147Z,3.67
2018-10-09T14:50:01.304Z,4.30
2018-10-09T14:52:45.633Z,3.67
2018-10-09T14:55:24.965Z,3.50
2018-10-09T14:57:55.065Z,3.50
2018-10-09T15:00:24.399Z,3.43
2018-10-09T15:02:53.416Z,3.73
2018-10-09T15:05:22.563Z,3.70
2018-10-09T15:07:52.073Z,3.90
2018-10-09T15:10:22.471Z,3.97
2018-10-09T15:12:51.574Z,5.30
2018-10-09T15:15:20.298Z,7.17
2018-10-09T15:17:49.526Z,6.23
2018-10-09T15:20:19.760Z,5.10
2018-10-09T15:22:49.329Z,4.20
2018-10-09T15:25:19.072Z,4.20
2018-10-09T15:27:49.032Z,3.47
2018-10-09T15:30:17.968Z,3.80
2018-10-09T15:32:47.054Z,4.00
2018-10-09T15:35:16.871Z,3.33
2018-10-09T15:37:50.134Z,3.90
2018-10-09T15:40:23.021Z,3.80
2018-10-09T15:42:52.081Z,4.10
2018-10-09T15:45:20.590Z,4.20
2018-10-09T15:47:49.612Z,3.90
2018-10-09T15:50:18.901Z,3.57
2018-10-09T15:52:52.926Z,4.20
2018-10-09T15:55:22.451Z,4.50
2018-10-09T15:57:52.021Z,4.50
2018-10-09T16:00:20.676Z,4.77
2018-10-09T16:02:50.344Z,4.90
2018-10-09T16:05:19.963Z,5.37
2018-10-09T16:07:49.419Z,5.37
2018-10-09T16:10:19.005Z,5.17
2018-10-09T16:12:48.435Z,6.30
2018-10-09T16:15:17.107Z,4.93
2018-10-09T16:17:46.206Z,5.17
2018-10-09T16:20:15.261Z,5.60
2018-10-09T16:22:44.419Z,5.63
2018-10-09T16:25:13.661Z,5.30
2018-10-09T16:27:43.624Z,5.60
2018-10-09T16:30:12.488Z,5.83
2018-10-09T16:32:41.441Z,6.10
2018-10-09T16:35:10.358Z,6.47
2018-10-09T16:37:39.643Z,5.83
2018-10-09T16:40:09.512Z,6.47
2018-10-09T16:42:38.671Z,5.40
2018-10-09T16:45:09.166Z,5.93
2018-10-09T16:47:39.069Z,6.50
2018-10-09T16:50:09.433Z,5.90
2018-10-09T16:52:38.612Z,6.60
2018-10-09T16:55:08.071Z,6.40
2018-10-09T16:57:37.888Z,6.60
2018-10-09T17:00:07.417Z,6.53
2018-10-09T17:02:36.963Z,7.13
2018-10-09T17:05:07.238Z,6.27
2018-10-09T17:07:36.966Z,7.07
2018-10-09T17:10:06.986Z,6.77
2018-10-09T17:12:36.441Z,7.87
2018-10-09T17:15:05.533Z,8.00
2018-10-09T17:17:35.049Z,7.43
2018-10-09T17:20:05.447Z,7.57
2018-10-09T17:22:34.357Z,7.47
2018-10-09T17:25:04.192Z,7.60
2018-10-09T17:27:34.307Z,8.00
2018-10-09T17:30:04.296Z,8.73
2018-10-09T17:32:33.656Z,7.53
2018-10-09T17:35:03.621Z,8.00
2018-10-09T17:37:32.686Z,8.10
2018-10-09T17:40:02.182Z,8.70
2018-10-09T17:42:33.577Z,7.90
2018-10-09T17:45:16.664Z,8.90
2018-10-09T17:47:46.569Z,7.73
2018-10-09T17:50:19.640Z,7.30
2018-10-09T17:52:50.662Z,8.10
2018-10-09T17:55:19.977Z,9.00
2018-10-09T17:57:49.928Z,9.60
2018-10-09T18:00:19.444Z,10.40
2018-10-09T18:02:48.535Z,9.43
2018-10-09T18:05:20.464Z,9.77
2018-10-09T18:07:53.852Z,8.97
2018-10-09T18:10:23.568Z,9.90
2018-10-09T18:12:54.048Z,8.97
2018-10-09T18:15:26.283Z,9.43
2018-10-09T18:17:55.818Z,9.43
2018-10-09T18:20:25.910Z,9.17
2018-10-09T18:22:55.047Z,10.20
2018-10-09T18:25:24.974Z,9.80
2018-10-09T18:27:54.206Z,9.80
2018-10-09T18:30:23.391Z,9.37
2018-10-09T18:32:53.711Z,8.43
2018-10-09T18:35:23.135Z,8.57
2018-10-09T18:37:52.277Z,8.60
2018-10-09T18:40:22.125Z,8.73
2018-10-09T18:42:51.738Z,9.10
2018-10-09T18:45:21.535Z,8.63
2018-10-09T18:47:50.739Z,9.13
2018-10-09T18:50:19.575Z,9.03
2018-10-09T18:52:49.332Z,10.07
2018-10-09T18:55:18.890Z,8.97
2018-10-09T18:57:48.157Z,9.20
2018-10-09T19:00:18.155Z,8.97
2018-10-09T19:02:46.802Z,9.23
2018-10-09T19:05:15.666Z,9.17
2018-10-09T19:07:45.108Z,9.13
2018-10-09T19:10:14.371Z,9.10
2018-10-09T19:12:43.053Z,8.57
2018-10-09T19:15:11.743Z,9.60
2018-10-09T19:17:43.810Z,11.10
2018-10-09T19:20:12.673Z,9.80
2018-10-09T19:22:41.762Z,10.13
2018-10-09T19:25:10.745Z,10.50
2018-10-09T19:27:40.352Z,9.40
2018-10-09T19:30:09.717Z,9.47
2018-10-09T19:32:39.550Z,8.73
2018-10-09T19:35:08.991Z,9.80
2018-10-09T19:37:38.204Z,9.37
2018-10-09T19:40:07.259Z,9.40
2018-10-09T19:42:36.391Z,9.60
2018-10-09T19:45:05.469Z,9.50
2018-10-09T19:47:37.517Z,9.60
2018-10-09T19:50:07.959Z,9.00
2018-10-09T19:52:37.324Z,8.93
2018-10-09T19:55:07.572Z,8.13
2018-10-09T19:57:36.789Z,7.83
2018-10-09T20:00:12.839Z,9.13
2018-10-09T20:02:46.404Z,8.77
2018-10-09T20:05:35.512Z,9.23
2018-10-09T20:08:20.388Z,8.23
2018-10-09T20:10:49.905Z,8.47
2018-10-09T20:13:19.366Z,8.97
2018-10-09T20:15:48.467Z,8.60
2018-10-09T20:18:17.381Z,8.40
2018-10-09T20:20:46.379Z,8.43
2018-10-09T20:23:15.212Z,8.83
2018-10-09T20:25:44.165Z,8.47
2018-10-09T20:28:13.604Z,8.77
2018-10-09T20:30:42.273Z,9.10
2018-10-09T20:33:11.597Z,9.13
2018-10-09T20:35:40.680Z,8.33
2018-10-09T20:38:09.475Z,8.47
2018-10-09T20:40:38.765Z,8.43
2018-10-09T20:43:07.469Z,7.90
2018-10-09T20:45:36.603Z,8.17
2018-10-09T20:48:05.790Z,8.87
2018-10-09T20:50:48.162Z,8.70
2018-10-09T20:53:17.605Z,8.40
2018-10-09T20:55:46.326Z,8.23
2018-10-09T20:58:15.130Z,7.23
2018-10-09T21:00:44.337Z,7.47
2018-10-09T21:03:13.187Z,7.77
2018-10-09T21:05:41.851Z,8.00
2018-10-09T21:08:10.871Z,7.93
2018-10-09T21:10:39.923Z,7.97
2018-10-09T21:13:08.491Z,8.20
2018-10-09T21:15:37.179Z,7.27
2018-10-09T21:18:06.590Z,7.43
2018-10-09T21:21:07.785Z,8.10
2018-10-09T21:23:37.692Z,7.60
2018-10-09T21:26:06.624Z,7.80
2018-10-09T21:28:35.868Z,7.00
2018-10-09T21:31:04.584Z,8.53
2018-10-09T21:33:35.653Z,8.07
2018-10-09T21:36:04.517Z,8.60
2018-10-09T21:38:33.562Z,8.30
2018-10-09T21:41:02.048Z,8.60
2018-10-09T21:43:30.624Z,8.70
2018-10-09T21:45:59.469Z,9.40
2018-10-09T21:48:28.238Z,8.20
2018-10-09T21:50:56.951Z,8.37
2018-10-09T21:53:25.683Z,8.90
2018-10-09T21:55:54.492Z,8.53
2018-10-09T21:58:23.383Z,8.67
2018-10-09T22:00:57.811Z,8.57
2018-10-09T22:03:26.731Z,9.30
2018-10-09T22:05:55.900Z,9.33
2018-10-09T22:08:30.951Z,8.63
2018-10-09T22:11:00.154Z,9.27
2018-10-09T22:13:29.266Z,9.43
2018-10-09T22:15:58.054Z,9.33
2018-10-09T22:18:26.841Z,9.13
2018-10-09T22:20:55.460Z,9.47
2018-10-09T22:23:24.377Z,9.20
2018-10-09T22:25:53.001Z,9.63
2018-10-09T22:28:25.528Z,9.77
2018-10-09T22:31:14.394Z,8.87
2018-10-09T22:33:44.210Z,9.33
2018-10-09T22:36:13.353Z,8.60
2018-10-09T22:38:42.311Z,8.60
2018-10-09T22:41:10.858Z,8.77
2018-10-09T22:43:39.657Z,10.87
2018-10-09T22:46:08.526Z,10.43
2018-10-09T22:48:37.446Z,10.57
2018-10-09T22:51:06.116Z,10.13
2018-10-09T22:53:35.150Z,10.57
2018-10-09T22:56:04.043Z,10.00
2018-10-09T22:58:32.699Z,9.57
2018-10-09T23:01:01.626Z,9.70
2018-10-09T23:03:30.390Z,9.93
2018-10-09T23:05:59.326Z,9.63
2018-10-09T23:08:27.865Z,9.50
2018-10-09T23:10:56.955Z,10.40
2018-10-09T23:13:25.854Z,10.40
2018-10-09T23:15:54.803Z,9.53
2018-10-09T23:18:24.072Z,9.67
2018-10-09T23:20:52.722Z,9.33
2018-10-09T23:23:22.422Z,9.70
2018-10-09T23:25:51.607Z,9.20
2018-10-09T23:28:21.228Z,9.47
2018-10-09T23:30:50.461Z,9.87
2018-10-09T23:33:19.368Z,9.30
2018-10-09T23:35:49.541Z,9.53
2018-10-09T23:38:18.187Z,9.30
2018-10-09T23:40:46.872Z,9.70
2018-10-09T23:43:15.536Z,9.33
2018-10-09T23:45:44.462Z,9.43
2018-10-09T23:48:13.264Z,10.10
2018-10-09T23:50:42.503Z,10.30
2018-10-09T23:53:11.443Z,10.17
2018-10-09T23:55:40.694Z,10.20
2018-10-09T23:58:09.361Z,9.70
